sensor_id;sensor_type;location;lat;lon;timestamp;pressure;altitude;pressure_sealevel;temperature
18782;BMP180;9519;51.890;8.970;2023-04-07T00:04:48;99187.00;;;7.90
18782;BMP180;9519;51.890;8.970;2023-04-07T00:09:51;99183.00;;;8.00
18782;BMP180;9519;51.890;8.970;2023-04-07T00:14:53;99193.00;;;8.00
18782;BMP180;9519;51.890;8.970;2023-04-07T00:19:57;99184.00;;;7.90
18782;BMP180;9519;51.890;8.970;2023-04-07T00:25:00;99177.00;;;7.80
18782;BMP180;9519;51.890;8.970;2023-04-07T00:30:03;99175.00;;;7.80
18782;BMP180;9519;51.890;8.970;2023-04-07T00:35:06;99139.00;;;7.80
18782;BMP180;9519;51.890;8.970;2023-04-07T00:40:10;99173.00;;;7.70
18782;BMP180;9519;51.890;8.970;2023-04-07T00:45:12;99173.00;;;7.70
18782;BMP180;9519;51.890;8.970;2023-04-07T00:50:15;99164.00;;;7.60
18782;BMP180;9519;51.890;8.970;2023-04-07T00:55:18;99147.00;;;7.40
18782;BMP180;9519;51.890;8.970;2023-04-07T01:00:22;99157.00;;;7.40
18782;BMP180;9519;51.890;8.970;2023-04-07T01:05:34;99158.00;;;7.30
18782;BMP180;9519;51.890;8.970;2023-04-07T01:10:49;99157.00;;;7.30
18782;BMP180;9519;51.890;8.970;2023-04-07T01:15:54;99154.00;;;7.20
18782;BMP180;9519;51.890;8.970;2023-04-07T01:21:05;99153.00;;;7.20
18782;BMP180;9519;51.890;8.970;2023-04-07T01:26:20;99151.00;;;7.10
18782;BMP180;9519;51.890;8.970;2023-04-07T01:31:27;99152.00;;;7.10
18782;BMP180;9519;51.890;8.970;2023-04-07T01:36:31;99146.00;;;7.10
18782;BMP180;9519;51.890;8.970;2023-04-07T01:41:36;99137.00;;;7.10
18782;BMP180;9519;51.890;8.970;2023-04-07T01:46:40;99144.00;;;7.10
18782;BMP180;9519;51.890;8.970;2023-04-07T01:51:43;99150.00;;;7.00
18782;BMP180;9519;51.890;8.970;2023-04-07T01:56:49;99135.00;;;7.00
18782;BMP180;9519;51.890;8.970;2023-04-07T02:01:53;99137.00;;;7.00
18782;BMP180;9519;51.890;8.970;2023-04-07T02:07:11;99127.00;;;6.90
18782;BMP180;9519;51.890;8.970;2023-04-07T02:12:19;99143.00;;;6.90
18782;BMP180;9519;51.890;8.970;2023-04-07T02:17:25;99157.00;;;6.90
18782;BMP180;9519;51.890;8.970;2023-04-07T02:22:29;99156.00;;;6.90
18782;BMP180;9519;51.890;8.970;2023-04-07T02:27:32;99130.00;;;6.80
18782;BMP180;9519;51.890;8.970;2023-04-07T02:32:36;99120.00;;;6.70
18782;BMP180;9519;51.890;8.970;2023-04-07T02:37:38;99144.00;;;6.80
18782;BMP180;9519;51.890;8.970;2023-04-07T02:42:40;99134.00;;;6.70
18782;BMP180;9519;51.890;8.970;2023-04-07T02:47:44;99137.00;;;6.70
18782;BMP180;9519;51.890;8.970;2023-04-07T02:52:46;99151.00;;;6.60
18782;BMP180;9519;51.890;8.970;2023-04-07T02:57:48;99131.00;;;6.60
18782;BMP180;9519;51.890;8.970;2023-04-07T03:02:54;99128.00;;;6.60
18782;BMP180;9519;51.890;8.970;2023-04-07T03:07:56;99131.00;;;6.60
18782;BMP180;9519;51.890;8.970;2023-04-07T03:13:00;99136.00;;;6.50
18782;BMP180;9519;51.890;8.970;2023-04-07T03:18:04;99128.00;;;6.50
18782;BMP180;9519;51.890;8.970;2023-04-07T03:23:06;99120.00;;;6.40
18782;BMP180;9519;51.890;8.970;2023-04-07T03:28:08;99099.00;;;6.40
18782;BMP180;9519;51.890;8.970;2023-04-07T03:33:12;99118.00;;;6.40
18782;BMP180;9519;51.890;8.970;2023-04-07T03:38:14;99124.00;;;6.40
18782;BMP180;9519;51.890;8.970;2023-04-07T03:43:16;99113.00;;;6.40
18782;BMP180;9519;51.890;8.970;2023-04-07T03:48:19;99091.00;;;6.30
18782;BMP180;9519;51.890;8.970;2023-04-07T03:53:21;99115.00;;;6.30
18782;BMP180;9519;51.890;8.970;2023-04-07T03:58:23;99112.00;;;6.30
18782;BMP180;9519;51.890;8.970;2023-04-07T04:03:27;99117.00;;;6.30
18782;BMP180;9519;51.890;8.970;2023-04-07T04:08:30;99127.00;;;6.30
18782;BMP180;9519;51.890;8.970;2023-04-07T04:13:32;99118.00;;;6.30
18782;BMP180;9519;51.890;8.970;2023-04-07T04:18:35;99110.00;;;6.30
18782;BMP180;9519;51.890;8.970;2023-04-07T04:23:37;99115.00;;;6.40
18782;BMP180;9519;51.890;8.970;2023-04-07T04:28:39;99123.00;;;6.30
18782;BMP180;9519;51.890;8.970;2023-04-07T04:33:42;99125.00;;;6.30
18782;BMP180;9519;51.890;8.970;2023-04-07T04:38:45;99128.00;;;6.30
18782;BMP180;9519;51.890;8.970;2023-04-07T04:43:47;99125.00;;;6.30
18782;BMP180;9519;51.890;8.970;2023-04-07T04:48:50;99126.00;;;6.30
18782;BMP180;9519;51.890;8.970;2023-04-07T04:53:52;99130.00;;;6.30
18782;BMP180;9519;51.890;8.970;2023-04-07T04:58:54;99139.00;;;6.30
18782;BMP180;9519;51.890;8.970;2023-04-07T05:03:57;99135.00;;;6.30
18782;BMP180;9519;51.890;8.970;2023-04-07T05:08:59;99145.00;;;6.30
18782;BMP180;9519;51.890;8.970;2023-04-07T05:14:01;99134.00;;;6.30
18782;BMP180;9519;51.890;8.970;2023-04-07T05:19:05;99133.00;;;6.40
18782;BMP180;9519;51.890;8.970;2023-04-07T05:24:07;99149.00;;;6.50
18782;BMP180;9519;51.890;8.970;2023-04-07T05:29:09;99158.00;;;6.50
18782;BMP180;9519;51.890;8.970;2023-04-07T05:34:14;99158.00;;;6.50
18782;BMP180;9519;51.890;8.970;2023-04-07T05:39:16;99173.00;;;6.60
18782;BMP180;9519;51.890;8.970;2023-04-07T05:44:18;99174.00;;;6.60
18782;BMP180;9519;51.890;8.970;2023-04-07T05:49:21;99176.00;;;6.70
18782;BMP180;9519;51.890;8.970;2023-04-07T05:54:23;99172.00;;;6.80
18782;BMP180;9519;51.890;8.970;2023-04-07T05:59:26;99183.00;;;6.80
18782;BMP180;9519;51.890;8.970;2023-04-07T06:04:29;99180.00;;;6.90
18782;BMP180;9519;51.890;8.970;2023-04-07T06:09:32;99194.00;;;7.00
18782;BMP180;9519;51.890;8.970;2023-04-07T06:14:34;99197.00;;;7.10
18782;BMP180;9519;51.890;8.970;2023-04-07T06:19:38;99205.00;;;7.20
18782;BMP180;9519;51.890;8.970;2023-04-07T06:24:40;99206.00;;;7.30
18782;BMP180;9519;51.890;8.970;2023-04-07T06:29:42;99215.00;;;7.30
18782;BMP180;9519;51.890;8.970;2023-04-07T06:34:45;99216.00;;;7.40
18782;BMP180;9519;51.890;8.970;2023-04-07T06:39:48;99225.00;;;7.50
18782;BMP180;9519;51.890;8.970;2023-04-07T06:44:50;99223.00;;;7.50
18782;BMP180;9519;51.890;8.970;2023-04-07T06:49:55;99223.00;;;7.60
18782;BMP180;9519;51.890;8.970;2023-04-07T06:54:59;99225.00;;;7.70
18782;BMP180;9519;51.890;8.970;2023-04-07T07:00:01;99240.00;;;7.80
18782;BMP180;9519;51.890;8.970;2023-04-07T07:05:06;99250.00;;;8.00
18782;BMP180;9519;51.890;8.970;2023-04-07T07:10:09;99265.00;;;8.10
18782;BMP180;9519;51.890;8.970;2023-04-07T07:15:11;99248.00;;;8.20
18782;BMP180;9519;51.890;8.970;2023-04-07T07:20:15;99252.00;;;8.30
18782;BMP180;9519;51.890;8.970;2023-04-07T07:25:17;99262.00;;;8.30
18782;BMP180;9519;51.890;8.970;2023-04-07T07:30:20;99256.00;;;8.50
18782;BMP180;9519;51.890;8.970;2023-04-07T07:35:24;99268.00;;;8.80
18782;BMP180;9519;51.890;8.970;2023-04-07T07:40:26;99269.00;;;8.90
18782;BMP180;9519;51.890;8.970;2023-04-07T07:45:30;99289.00;;;9.00
18782;BMP180;9519;51.890;8.970;2023-04-07T07:50:33;99285.00;;;9.10
18782;BMP180;9519;51.890;8.970;2023-04-07T07:55:35;99282.00;;;9.10
18782;BMP180;9519;51.890;8.970;2023-04-07T08:00:37;99276.00;;;9.30
18782;BMP180;9519;51.890;8.970;2023-04-07T08:05:41;99283.00;;;9.20
18782;BMP180;9519;51.890;8.970;2023-04-07T08:10:46;99280.00;;;9.30
18782;BMP180;9519;51.890;8.970;2023-04-07T08:15:48;99298.00;;;9.40
18782;BMP180;9519;51.890;8.970;2023-04-07T08:20:52;99304.00;;;9.40
18782;BMP180;9519;51.890;8.970;2023-04-07T08:25:54;99299.00;;;9.30
18782;BMP180;9519;51.890;8.970;2023-04-07T08:30:56;99308.00;;;9.30
18782;BMP180;9519;51.890;8.970;2023-04-07T08:36:00;99312.00;;;9.30
18782;BMP180;9519;51.890;8.970;2023-04-07T08:41:06;99322.00;;;9.40
18782;BMP180;9519;51.890;8.970;2023-04-07T08:46:09;99326.00;;;9.50
18782;BMP180;9519;51.890;8.970;2023-04-07T08:51:14;99314.00;;;9.50
18782;BMP180;9519;51.890;8.970;2023-04-07T08:56:23;99321.00;;;9.50
18782;BMP180;9519;51.890;8.970;2023-04-07T09:01:26;99327.00;;;9.50
18782;BMP180;9519;51.890;8.970;2023-04-07T09:06:31;99320.00;;;9.60
18782;BMP180;9519;51.890;8.970;2023-04-07T09:11:37;99328.00;;;9.60
18782;BMP180;9519;51.890;8.970;2023-04-07T09:16:39;99329.00;;;9.70
18782;BMP180;9519;51.890;8.970;2023-04-07T09:21:51;99333.00;;;9.70
18782;BMP180;9519;51.890;8.970;2023-04-07T09:27:09;99344.00;;;9.70
18782;BMP180;9519;51.890;8.970;2023-04-07T09:32:13;99337.00;;;9.70
18782;BMP180;9519;51.890;8.970;2023-04-07T09:37:24;99343.00;;;9.70
18782;BMP180;9519;51.890;8.970;2023-04-07T09:42:26;99339.00;;;9.80
18782;BMP180;9519;51.890;8.970;2023-04-07T09:47:32;99348.00;;;9.90
18782;BMP180;9519;51.890;8.970;2023-04-07T09:52:51;99345.00;;;10.00
18782;BMP180;9519;51.890;8.970;2023-04-07T09:57:54;99334.00;;;10.20
18782;BMP180;9519;51.890;8.970;2023-04-07T10:02:57;99343.00;;;10.40
18782;BMP180;9519;51.890;8.970;2023-04-07T10:08:01;99329.00;;;10.60
18782;BMP180;9519;51.890;8.970;2023-04-07T10:13:04;99343.00;;;10.80
18782;BMP180;9519;51.890;8.970;2023-04-07T10:18:08;99344.00;;;10.90
18782;BMP180;9519;51.890;8.970;2023-04-07T10:23:19;99343.00;;;11.00
18782;BMP180;9519;51.890;8.970;2023-04-07T10:28:26;99345.00;;;11.20
18782;BMP180;9519;51.890;8.970;2023-04-07T10:33:46;99350.00;;;11.30
18782;BMP180;9519;51.890;8.970;2023-04-07T10:39:21;99340.00;;;11.50
18782;BMP180;9519;51.890;8.970;2023-04-07T10:44:48;99348.00;;;11.70
18782;BMP180;9519;51.890;8.970;2023-04-07T10:50:19;99350.00;;;11.80
18782;BMP180;9519;51.890;8.970;2023-04-07T10:55:32;99340.00;;;11.80
18782;BMP180;9519;51.890;8.970;2023-04-07T11:00:34;99339.00;;;11.80
18782;BMP180;9519;51.890;8.970;2023-04-07T11:05:37;99341.00;;;12.00
18782;BMP180;9519;51.890;8.970;2023-04-07T11:10:47;99342.00;;;12.00
18782;BMP180;9519;51.890;8.970;2023-04-07T11:15:49;99342.00;;;12.00
18782;BMP180;9519;51.890;8.970;2023-04-07T11:20:54;99337.00;;;12.10
18782;BMP180;9519;51.890;8.970;2023-04-07T11:26:01;99342.00;;;12.20
18782;BMP180;9519;51.890;8.970;2023-04-07T11:31:04;99338.00;;;12.40
18782;BMP180;9519;51.890;8.970;2023-04-07T11:36:06;99345.00;;;12.70
18782;BMP180;9519;51.890;8.970;2023-04-07T11:41:13;99337.00;;;12.90
18782;BMP180;9519;51.890;8.970;2023-04-07T11:46:17;99311.00;;;13.10
18782;BMP180;9519;51.890;8.970;2023-04-07T11:51:21;99326.00;;;13.10
18782;BMP180;9519;51.890;8.970;2023-04-07T11:56:26;99333.00;;;13.20
18782;BMP180;9519;51.890;8.970;2023-04-07T12:01:39;99342.00;;;13.20
18782;BMP180;9519;51.890;8.970;2023-04-07T12:06:43;99333.00;;;13.10
18782;BMP180;9519;51.890;8.970;2023-04-07T12:11:50;99333.00;;;13.00
18782;BMP180;9519;51.890;8.970;2023-04-07T12:16:52;99347.00;;;13.00
18782;BMP180;9519;51.890;8.970;2023-04-07T12:21:56;99334.00;;;13.20
18782;BMP180;9519;51.890;8.970;2023-04-07T12:26:59;99325.00;;;13.30
18782;BMP180;9519;51.890;8.970;2023-04-07T12:32:05;99329.00;;;13.50
18782;BMP180;9519;51.890;8.970;2023-04-07T12:37:10;99336.00;;;13.70
18782;BMP180;9519;51.890;8.970;2023-04-07T12:42:13;99328.00;;;14.00
18782;BMP180;9519;51.890;8.970;2023-04-07T12:47:15;99324.00;;;14.20
18782;BMP180;9519;51.890;8.970;2023-04-07T12:52:17;99327.00;;;14.30
18782;BMP180;9519;51.890;8.970;2023-04-07T12:57:21;99320.00;;;14.50
18782;BMP180;9519;51.890;8.970;2023-04-07T13:02:23;99326.00;;;14.70
18782;BMP180;9519;51.890;8.970;2023-04-07T13:07:25;99322.00;;;14.90
18782;BMP180;9519;51.890;8.970;2023-04-07T13:12:29;99314.00;;;15.10
18782;BMP180;9519;51.890;8.970;2023-04-07T13:17:31;99310.00;;;15.30
18782;BMP180;9519;51.890;8.970;2023-04-07T13:22:36;99311.00;;;15.40
18782;BMP180;9519;51.890;8.970;2023-04-07T13:27:39;99304.00;;;15.70
18782;BMP180;9519;51.890;8.970;2023-04-07T13:32:41;99310.00;;;15.90
18782;BMP180;9519;51.890;8.970;2023-04-07T13:37:44;99412.00;;;16.20
18782;BMP180;9519;51.890;8.970;2023-04-07T13:42:49;99423.00;;;16.30
18782;BMP180;9519;51.890;8.970;2023-04-07T13:47:51;99417.00;;;16.60
18782;BMP180;9519;51.890;8.970;2023-04-07T13:52:53;99313.00;;;16.50
18782;BMP180;9519;51.890;8.970;2023-04-07T13:57:57;99300.00;;;16.20
18782;BMP180;9519;51.890;8.970;2023-04-07T14:02:59;99308.00;;;15.80
18782;BMP180;9519;51.890;8.970;2023-04-07T14:08:01;99305.00;;;15.60
18782;BMP180;9519;51.890;8.970;2023-04-07T14:13:04;99304.00;;;15.50
18782;BMP180;9519;51.890;8.970;2023-04-07T14:18:07;99297.00;;;15.30
18782;BMP180;9519;51.890;8.970;2023-04-07T14:23:09;99291.00;;;15.10
18782;BMP180;9519;51.890;8.970;2023-04-07T14:28:13;99295.00;;;15.20
18782;BMP180;9519;51.890;8.970;2023-04-07T14:33:15;99304.00;;;15.10
18782;BMP180;9519;51.890;8.970;2023-04-07T14:38:17;99291.00;;;14.80
18782;BMP180;9519;51.890;8.970;2023-04-07T14:43:25;99294.00;;;14.80
18782;BMP180;9519;51.890;8.970;2023-04-07T14:48:27;99296.00;;;14.70
18782;BMP180;9519;51.890;8.970;2023-04-07T14:53:32;99306.00;;;14.70
18782;BMP180;9519;51.890;8.970;2023-04-07T14:58:35;99299.00;;;14.70
18782;BMP180;9519;51.890;8.970;2023-04-07T15:03:38;99300.00;;;14.70
18782;BMP180;9519;51.890;8.970;2023-04-07T15:08:41;99300.00;;;14.70
18782;BMP180;9519;51.890;8.970;2023-04-07T15:13:46;99315.00;;;14.70
18782;BMP180;9519;51.890;8.970;2023-04-07T15:18:49;99312.00;;;14.60
18782;BMP180;9519;51.890;8.970;2023-04-07T15:23:51;99318.00;;;14.50
18782;BMP180;9519;51.890;8.970;2023-04-07T15:28:55;99318.00;;;14.40
18782;BMP180;9519;51.890;8.970;2023-04-07T15:33:59;99307.00;;;14.20
18782;BMP180;9519;51.890;8.970;2023-04-07T15:39:02;99318.00;;;14.20
18782;BMP180;9519;51.890;8.970;2023-04-07T15:44:06;99316.00;;;14.50
18782;BMP180;9519;51.890;8.970;2023-04-07T15:49:09;99308.00;;;15.00
18782;BMP180;9519;51.890;8.970;2023-04-07T15:54:11;99319.00;;;15.50
18782;BMP180;9519;51.890;8.970;2023-04-07T15:59:15;99330.00;;;15.70
18782;BMP180;9519;51.890;8.970;2023-04-07T16:04:17;99315.00;;;15.40
18782;BMP180;9519;51.890;8.970;2023-04-07T16:09:19;99330.00;;;15.00
18782;BMP180;9519;51.890;8.970;2023-04-07T16:14:23;99336.00;;;14.70
18782;BMP180;9519;51.890;8.970;2023-04-07T16:19:28;99341.00;;;14.30
18782;BMP180;9519;51.890;8.970;2023-04-07T16:24:30;99348.00;;;14.00
18782;BMP180;9519;51.890;8.970;2023-04-07T16:29:34;99348.00;;;13.70
18782;BMP180;9519;51.890;8.970;2023-04-07T16:34:36;99360.00;;;13.50
18782;BMP180;9519;51.890;8.970;2023-04-07T16:39:38;99356.00;;;13.30
18782;BMP180;9519;51.890;8.970;2023-04-07T16:44:41;99369.00;;;13.00
18782;BMP180;9519;51.890;8.970;2023-04-07T16:49:43;99371.00;;;12.80
18782;BMP180;9519;51.890;8.970;2023-04-07T16:54:45;99383.00;;;12.60
18782;BMP180;9519;51.890;8.970;2023-04-07T16:59:49;99393.00;;;12.40
18782;BMP180;9519;51.890;8.970;2023-04-07T17:04:51;99403.00;;;12.30
18782;BMP180;9519;51.890;8.970;2023-04-07T17:09:53;99410.00;;;12.30
18782;BMP180;9519;51.890;8.970;2023-04-07T17:14:56;99416.00;;;12.20
18782;BMP180;9519;51.890;8.970;2023-04-07T17:19:58;99434.00;;;12.20
18782;BMP180;9519;51.890;8.970;2023-04-07T17:25:00;99439.00;;;12.20
18782;BMP180;9519;51.890;8.970;2023-04-07T17:30:05;99450.00;;;12.10
18782;BMP180;9519;51.890;8.970;2023-04-07T17:35:08;99452.00;;;12.00
18782;BMP180;9519;51.890;8.970;2023-04-07T17:40:11;99468.00;;;11.90
18782;BMP180;9519;51.890;8.970;2023-04-07T17:45:15;99476.00;;;11.80
18782;BMP180;9519;51.890;8.970;2023-04-07T17:50:17;99489.00;;;11.70
18782;BMP180;9519;51.890;8.970;2023-04-07T17:55:19;99477.00;;;11.50
18782;BMP180;9519;51.890;8.970;2023-04-07T18:00:23;99489.00;;;11.30
18782;BMP180;9519;51.890;8.970;2023-04-07T18:05:25;99494.00;;;11.20
18782;BMP180;9519;51.890;8.970;2023-04-07T18:10:30;99503.00;;;11.10
18782;BMP180;9519;51.890;8.970;2023-04-07T18:15:34;99513.00;;;10.90
18782;BMP180;9519;51.890;8.970;2023-04-07T18:20:36;99512.00;;;10.70
18782;BMP180;9519;51.890;8.970;2023-04-07T18:25:38;99525.00;;;10.50
18782;BMP180;9519;51.890;8.970;2023-04-07T18:30:41;99523.00;;;10.30
18782;BMP180;9519;51.890;8.970;2023-04-07T18:35:43;99532.00;;;10.20
18782;BMP180;9519;51.890;8.970;2023-04-07T18:40:45;99534.00;;;10.10
18782;BMP180;9519;51.890;8.970;2023-04-07T18:45:48;99541.00;;;9.90
18782;BMP180;9519;51.890;8.970;2023-04-07T18:50:54;99554.00;;;9.80
18782;BMP180;9519;51.890;8.970;2023-04-07T18:55:56;99570.00;;;9.70
18782;BMP180;9519;51.890;8.970;2023-04-07T19:00:59;99561.00;;;9.50
18782;BMP180;9519;51.890;8.970;2023-04-07T19:06:01;99583.00;;;9.30
18782;BMP180;9519;51.890;8.970;2023-04-07T19:11:03;99585.00;;;9.20
18782;BMP180;9519;51.890;8.970;2023-04-07T19:16:07;99581.00;;;9.00
18782;BMP180;9519;51.890;8.970;2023-04-07T19:21:09;99592.00;;;8.90
18782;BMP180;9519;51.890;8.970;2023-04-07T19:26:13;99593.00;;;8.70
18782;BMP180;9519;51.890;8.970;2023-04-07T19:31:16;99593.00;;;8.60
18782;BMP180;9519;51.890;8.970;2023-04-07T19:36:18;99604.00;;;8.50
18782;BMP180;9519;51.890;8.970;2023-04-07T19:41:21;99606.00;;;8.30
18782;BMP180;9519;51.890;8.970;2023-04-07T19:46:24;99608.00;;;8.20
18782;BMP180;9519;51.890;8.970;2023-04-07T19:51:26;99604.00;;;8.10
18782;BMP180;9519;51.890;8.970;2023-04-07T19:56:28;99608.00;;;8.00
18782;BMP180;9519;51.890;8.970;2023-04-07T20:01:31;99618.00;;;7.90
18782;BMP180;9519;51.890;8.970;2023-04-07T20:06:34;99615.00;;;7.80
18782;BMP180;9519;51.890;8.970;2023-04-07T20:11:39;99630.00;;;7.70
18782;BMP180;9519;51.890;8.970;2023-04-07T20:16:42;99617.00;;;7.70
18782;BMP180;9519;51.890;8.970;2023-04-07T20:21:45;99612.00;;;7.60
18782;BMP180;9519;51.890;8.970;2023-04-07T20:26:47;99617.00;;;7.50
18782;BMP180;9519;51.890;8.970;2023-04-07T20:31:50;99620.00;;;7.50
18782;BMP180;9519;51.890;8.970;2023-04-07T20:36:55;99621.00;;;7.50
18782;BMP180;9519;51.890;8.970;2023-04-07T20:41:57;99601.00;;;7.40
18782;BMP180;9519;51.890;8.970;2023-04-07T20:47:06;99644.00;;;7.30
18782;BMP180;9519;51.890;8.970;2023-04-07T20:52:09;99632.00;;;7.30
18782;BMP180;9519;51.890;8.970;2023-04-07T20:57:11;99635.00;;;7.10
18782;BMP180;9519;51.890;8.970;2023-04-07T21:02:14;99622.00;;;7.00
18782;BMP180;9519;51.890;8.970;2023-04-07T21:07:16;99628.00;;;6.90
18782;BMP180;9519;51.890;8.970;2023-04-07T21:12:19;99638.00;;;6.80
18782;BMP180;9519;51.890;8.970;2023-04-07T21:17:22;99627.00;;;6.70
18782;BMP180;9519;51.890;8.970;2023-04-07T21:22:24;99646.00;;;6.60
18782;BMP180;9519;51.890;8.970;2023-04-07T21:27:28;99650.00;;;6.50
18782;BMP180;9519;51.890;8.970;2023-04-07T21:32:32;99651.00;;;6.40
18782;BMP180;9519;51.890;8.970;2023-04-07T21:37:34;99647.00;;;6.30
18782;BMP180;9519;51.890;8.970;2023-04-07T21:42:37;99638.00;;;6.20
18782;BMP180;9519;51.890;8.970;2023-04-07T21:47:40;99621.00;;;6.10
18782;BMP180;9519;51.890;8.970;2023-04-07T21:52:42;99639.00;;;6.00
18782;BMP180;9519;51.890;8.970;2023-04-07T21:57:44;99640.00;;;5.90
18782;BMP180;9519;51.890;8.970;2023-04-07T22:02:48;99624.00;;;5.90
18782;BMP180;9519;51.890;8.970;2023-04-07T22:07:50;99650.00;;;5.80
18782;BMP180;9519;51.890;8.970;2023-04-07T22:12:53;99644.00;;;5.80
18782;BMP180;9519;51.890;8.970;2023-04-07T22:17:57;99639.00;;;5.60
18782;BMP180;9519;51.890;8.970;2023-04-07T22:22:59;99641.00;;;5.60
18782;BMP180;9519;51.890;8.970;2023-04-07T22:28:02;99639.00;;;5.40
18782;BMP180;9519;51.890;8.970;2023-04-07T22:33:05;99633.00;;;5.30
18782;BMP180;9519;51.890;8.970;2023-04-07T22:38:07;99624.00;;;5.20
18782;BMP180;9519;51.890;8.970;2023-04-07T22:43:10;99622.00;;;5.10
18782;BMP180;9519;51.890;8.970;2023-04-07T22:48:14;99593.00;;;5.00
18782;BMP180;9519;51.890;8.970;2023-04-07T22:53:16;99626.00;;;5.00
18782;BMP180;9519;51.890;8.970;2023-04-07T22:58:18;99636.00;;;5.00
18782;BMP180;9519;51.890;8.970;2023-04-07T23:03:21;99618.00;;;4.90
18782;BMP180;9519;51.890;8.970;2023-04-07T23:08:23;99631.00;;;4.90
18782;BMP180;9519;51.890;8.970;2023-04-07T23:13:25;99622.00;;;4.80
18782;BMP180;9519;51.890;8.970;2023-04-07T23:18:29;99600.00;;;4.80
18782;BMP180;9519;51.890;8.970;2023-04-07T23:23:31;99644.00;;;4.70
18782;BMP180;9519;51.890;8.970;2023-04-07T23:28:33;99657.00;;;4.70
18782;BMP180;9519;51.890;8.970;2023-04-07T23:33:36;99646.00;;;4.70
18782;BMP180;9519;51.890;8.970;2023-04-07T23:38:38;99654.00;;;4.70
18782;BMP180;9519;51.890;8.970;2023-04-07T23:43:41;99651.00;;;4.70
18782;BMP180;9519;51.890;8.970;2023-04-07T23:48:44;99661.00;;;4.80
18782;BMP180;9519;51.890;8.970;2023-04-07T23:53:46;99668.00;;;4.80
18782;BMP180;9519;51.890;8.970;2023-04-07T23:58:51;99694.00;;;4.90
